Kenton, Delaware
Current Conditions -  °F | °C
As of 10:32 PM on Wednesday 22 Oct 2014 (Local Time) from KDOV Reporting Station
Light Rain Light Rain  
Wind Chill: 52°   Ceiling: 2700
Heat Index: 52°   Visibility: 10mi
Dew Point: 52°   Wind: 18mph
Humidity: 100%   Direction: 320°NW
Pressure: 29.8"   Gusts: 25mph
Location:  39.23°N, 75.66°W
Report Text: KDOV 230232Z AUTO 32016G22KT 10SM -RA BKN027 11/11 A2980 RMK AO2
Loading
Personal Weather Stations






























Interactive Weather Map
Tropical Storm Tracking
New forecast layout! Learn more

10-Day Weather Forecast

Advertisements
Track Severe Weather on mobile